createdAt,value
2018-08-25T00:00:28.575Z,12.69
2018-08-25T00:02:56.925Z,12.72
2018-08-25T00:05:25.167Z,12.70
2018-08-25T00:07:53.433Z,12.64
2018-08-25T00:10:21.737Z,12.70
2018-08-25T00:12:50.009Z,12.80
2018-08-25T00:15:18.313Z,12.75
2018-08-25T00:17:46.573Z,12.76
2018-08-25T00:20:14.837Z,12.79
2018-08-25T00:22:43.093Z,12.54
2018-08-25T00:25:11.359Z,12.55
2018-08-25T00:27:39.609Z,12.59
2018-08-25T00:30:13.026Z,12.45
2018-08-25T00:32:41.281Z,12.54
2018-08-25T00:35:09.591Z,12.44
2018-08-25T00:37:38.925Z,12.45
2018-08-25T00:40:07.217Z,12.40
2018-08-25T00:42:35.486Z,12.42
2018-08-25T00:45:03.787Z,12.34
2018-08-25T00:47:32.029Z,12.15
2018-08-25T00:50:00.314Z,12.16
2018-08-25T00:52:28.650Z,12.26
2018-08-25T00:54:56.986Z,12.14
2018-08-25T00:57:25.303Z,12.31
2018-08-25T00:59:54.305Z,12.21
2018-08-25T01:02:22.589Z,12.05
2018-08-25T01:04:50.843Z,12.07
2018-08-25T01:07:19.102Z,12.17
2018-08-25T01:09:47.364Z,12.25
2018-08-25T01:12:15.620Z,12.27
2018-08-25T01:14:43.993Z,12.23
2018-08-25T01:17:12.273Z,12.22
2018-08-25T01:19:41.559Z,12.14
2018-08-25T01:22:09.860Z,12.16
2018-08-25T01:24:38.149Z,12.15
2018-08-25T01:27:06.401Z,12.10
2018-08-25T01:29:34.663Z,11.89
2018-08-25T01:32:03.164Z,11.87
2018-08-25T01:34:31.404Z,11.70
2018-08-25T01:37:00.717Z,11.60
2018-08-25T01:39:29.739Z,11.68
2018-08-25T01:41:58.010Z,11.72
2018-08-25T01:44:26.777Z,11.71
2018-08-25T01:46:55.033Z,11.74
2018-08-25T01:49:23.310Z,11.79
2018-08-25T01:51:51.568Z,11.70
2018-08-25T01:54:19.884Z,11.80
2018-08-25T01:56:48.145Z,11.83
2018-08-25T01:59:16.422Z,11.69
2018-08-25T02:01:44.682Z,11.68
2018-08-25T02:04:12.935Z,11.73
2018-08-25T02:06:41.431Z,11.68
2018-08-25T02:09:12.342Z,11.79
2018-08-25T02:11:40.945Z,11.81
2018-08-25T02:14:09.815Z,11.84
2018-08-25T02:16:38.627Z,11.83
2018-08-25T02:19:06.881Z,11.73
2018-08-25T02:21:35.149Z,11.75
2018-08-25T02:24:03.390Z,11.71
2018-08-25T02:26:31.669Z,11.70
2018-08-25T02:28:59.912Z,11.72
2018-08-25T02:31:28.189Z,11.62
2018-08-25T02:33:56.469Z,11.66
2018-08-25T02:36:24.741Z,11.64
2018-08-25T02:38:52.993Z,11.70
2018-08-25T02:41:21.301Z,11.62
2018-08-25T02:43:49.551Z,11.62
2018-08-25T02:46:17.863Z,11.53
2018-08-25T02:48:46.134Z,11.52
2018-08-25T02:51:14.373Z,11.46
2018-08-25T02:53:42.633Z,11.49
2018-08-25T02:56:10.880Z,11.54
2018-08-25T02:58:39.162Z,11.60
2018-08-25T03:01:07.670Z,11.58
2018-08-25T03:03:35.973Z,11.60
2018-08-25T03:06:04.224Z,11.63
2018-08-25T03:08:32.585Z,11.63
2018-08-25T03:11:00.843Z,11.62
2018-08-25T03:13:29.141Z,11.62
2018-08-25T03:15:57.391Z,11.56
2018-08-25T03:18:25.690Z,11.54
2018-08-25T03:20:53.932Z,11.53
2018-08-25T03:23:22.209Z,11.53
2018-08-25T03:25:50.453Z,11.57
2018-08-25T03:28:18.797Z,11.52
2018-08-25T03:30:47.044Z,11.56
2018-08-25T03:33:15.322Z,11.64
2018-08-25T03:35:43.597Z,11.69
2018-08-25T03:38:11.882Z,11.46
2018-08-25T03:40:41.177Z,11.47
2018-08-25T03:43:09.425Z,11.50
2018-08-25T03:45:37.697Z,11.49
2018-08-25T03:48:06.129Z,11.51
2018-08-25T03:50:34.398Z,11.36
2018-08-25T03:53:02.653Z,11.50
2018-08-25T03:55:30.983Z,11.50
2018-08-25T03:57:59.188Z,11.53
2018-08-25T04:00:27.465Z,11.50
2018-08-25T04:02:55.721Z,11.57
2018-08-25T04:05:24.001Z,11.49
2018-08-25T04:07:52.249Z,11.38
2018-08-25T04:10:20.515Z,11.37
2018-08-25T04:12:48.820Z,11.28
2018-08-25T04:15:17.193Z,11.39
2018-08-25T04:17:45.437Z,11.35
2018-08-25T04:20:13.715Z,11.40
2018-08-25T04:22:41.990Z,11.49
2018-08-25T04:25:10.234Z,11.50
2018-08-25T04:27:38.473Z,11.56
2018-08-25T04:30:06.990Z,11.52
2018-08-25T04:32:35.653Z,11.53
2018-08-25T04:35:04.030Z,11.54
2018-08-25T04:37:32.275Z,11.39
2018-08-25T04:40:00.533Z,11.37
2018-08-25T04:42:28.802Z,11.48
2018-08-25T04:44:57.052Z,11.51
2018-08-25T04:47:25.324Z,11.57
2018-08-25T04:49:55.229Z,11.65
2018-08-25T04:52:23.551Z,11.67
2018-08-25T04:54:51.797Z,11.69
2018-08-25T04:57:20.085Z,11.81
2018-08-25T04:59:48.336Z,11.83
2018-08-25T05:02:16.609Z,11.85
2018-08-25T05:04:44.859Z,11.80
2018-08-25T05:07:13.129Z,11.77
2018-08-25T05:09:41.381Z,11.83
2018-08-25T05:12:10.725Z,12.17
2018-08-25T05:14:39.396Z,12.23
2018-08-25T05:17:07.665Z,12.36
2018-08-25T05:19:35.914Z,12.59
2018-08-25T05:22:04.192Z,12.96
2018-08-25T05:24:32.431Z,12.81
2018-08-25T05:27:00.717Z,12.95
2018-08-25T05:29:28.969Z,13.24
2018-08-25T05:31:57.213Z,13.29
2018-08-25T05:34:25.481Z,13.30
2018-08-25T05:36:53.785Z,13.35
2018-08-25T05:39:22.058Z,13.48
2018-08-25T05:41:50.325Z,13.41
2018-08-25T05:44:18.655Z,13.23
2018-08-25T05:46:46.841Z,13.40
2018-08-25T05:49:15.141Z,13.61
2018-08-25T05:51:43.399Z,13.80
2018-08-25T05:54:11.677Z,13.77
2018-08-25T05:56:40.074Z,13.64
2018-08-25T05:59:08.349Z,13.74
2018-08-25T06:01:36.604Z,13.96
2018-08-25T06:04:04.898Z,14.08
2018-08-25T06:06:33.205Z,14.06
2018-08-25T06:09:01.474Z,14.15
2018-08-25T06:11:29.725Z,14.25
2018-08-25T06:13:58.040Z,14.41
2018-08-25T06:16:26.294Z,14.50
2018-08-25T06:18:54.599Z,14.28
2018-08-25T06:21:22.849Z,14.47
2018-08-25T06:23:51.124Z,14.67
2018-08-25T06:26:19.426Z,14.73
2018-08-25T06:28:47.677Z,14.74
2018-08-25T06:31:15.953Z,14.72
2018-08-25T06:33:44.193Z,14.83
2018-08-25T06:36:12.486Z,15.11
2018-08-25T06:38:40.729Z,15.43
2018-08-25T06:41:09.046Z,15.62
2018-08-25T06:43:37.409Z,15.45
2018-08-25T06:46:08.069Z,15.65
2018-08-25T06:48:37.520Z,16.04
2018-08-25T06:51:06.813Z,16.16
2018-08-25T06:53:35.301Z,16.18
2018-08-25T06:56:03.679Z,16.03
2018-08-25T06:58:31.969Z,15.56
2018-08-25T07:01:00.257Z,15.78
2018-08-25T07:03:28.709Z,15.87
2018-08-25T07:05:57.010Z,15.88
2018-08-25T07:08:25.265Z,15.55
2018-08-25T07:10:55.567Z,15.72
2018-08-25T07:13:23.869Z,15.60
2018-08-25T07:15:52.200Z,15.86
2018-08-25T07:18:20.457Z,16.07
2018-08-25T07:20:48.737Z,16.13
2018-08-25T07:23:17.038Z,16.27
2018-08-25T07:25:47.476Z,16.18
2018-08-25T07:28:15.656Z,16.24
2018-08-25T07:30:43.926Z,16.52
2018-08-25T07:33:12.207Z,16.11
2018-08-25T07:35:40.514Z,15.93
2018-08-25T07:38:08.866Z,16.03
2018-08-25T07:40:38.139Z,16.14
2018-08-25T07:43:06.641Z,16.33
2018-08-25T07:45:34.905Z,16.39
2018-08-25T07:48:03.170Z,16.37
2018-08-25T07:50:31.409Z,16.22
2018-08-25T07:52:59.708Z,16.37
2018-08-25T07:55:28.109Z,16.64
2018-08-25T07:57:56.382Z,16.69
2018-08-25T08:00:24.629Z,16.92
2018-08-25T08:02:53.071Z,17.03
2018-08-25T08:05:21.337Z,17.34
2018-08-25T08:07:49.649Z,17.50
2018-08-25T08:10:17.900Z,17.11
2018-08-25T08:12:46.229Z,16.82
2018-08-25T08:15:14.613Z,16.92
2018-08-25T08:17:42.862Z,17.03
2018-08-25T08:20:11.640Z,16.98
2018-08-25T08:22:39.902Z,16.86
2018-08-25T08:25:08.185Z,16.67
2018-08-25T08:27:36.511Z,16.65
2018-08-25T08:30:05.749Z,16.76
2018-08-25T08:32:34.009Z,16.56
2018-08-25T08:35:02.289Z,16.54
2018-08-25T08:37:30.540Z,16.74
2018-08-25T08:39:58.805Z,16.88
2018-08-25T08:42:27.178Z,16.63
2018-08-25T08:44:55.347Z,16.46
2018-08-25T08:47:23.657Z,16.63
2018-08-25T08:49:52.238Z,16.51
2018-08-25T08:52:20.539Z,16.25
2018-08-25T08:54:48.808Z,16.37
2018-08-25T08:57:17.068Z,16.21
2018-08-25T08:59:45.442Z,16.13
2018-08-25T09:02:13.693Z,16.14
2018-08-25T09:04:42.001Z,16.30
2018-08-25T09:07:10.349Z,16.37
2018-08-25T09:09:38.997Z,16.03
2018-08-25T09:12:07.426Z,15.82
2018-08-25T09:14:35.730Z,15.80
2018-08-25T09:19:54.973Z,15.81
2018-08-25T09:22:23.389Z,15.55
2018-08-25T09:24:51.733Z,15.77
2018-08-25T09:27:20.041Z,15.86
2018-08-25T09:29:48.284Z,16.36
2018-08-25T09:32:16.553Z,16.17
2018-08-25T09:34:44.802Z,16.21
2018-08-25T09:37:13.081Z,16.35
2018-08-25T09:39:41.325Z,16.54
2018-08-25T09:42:09.590Z,16.44
2018-08-25T09:44:38.841Z,16.31
2018-08-25T09:47:07.205Z,16.28
2018-08-25T09:49:35.381Z,15.77
2018-08-25T09:52:03.706Z,15.69
2018-08-25T09:54:31.967Z,15.72
2018-08-25T09:57:00.265Z,15.93
2018-08-25T09:59:28.508Z,16.01
2018-08-25T10:02:00.771Z,16.07
2018-08-25T10:04:29.937Z,16.71
2018-08-25T10:06:58.276Z,16.85
2018-08-25T10:09:26.549Z,16.80
2018-08-25T10:11:54.805Z,16.94
2018-08-25T10:14:23.121Z,16.66
2018-08-25T10:16:51.466Z,16.80
2018-08-25T10:19:19.678Z,16.95
2018-08-25T10:21:47.930Z,17.30
2018-08-25T10:24:16.207Z,17.17
2018-08-25T10:26:44.598Z,17.15
2018-08-25T10:29:12.888Z,17.16
2018-08-25T10:31:41.143Z,17.28
2018-08-25T10:34:09.427Z,17.22
2018-08-25T10:36:37.833Z,16.67
2018-08-25T10:39:09.469Z,16.79
2018-08-25T10:41:37.771Z,17.15
2018-08-25T10:44:06.673Z,16.88
2018-08-25T10:46:35.025Z,16.78
2018-08-25T10:49:03.303Z,16.55
2018-08-25T10:51:31.557Z,16.55
2018-08-25T10:53:59.908Z,16.53
2018-08-25T10:56:28.284Z,16.67
2018-08-25T10:58:56.571Z,16.50
2018-08-25T11:01:24.857Z,16.28
2018-08-25T11:03:53.158Z,16.32
2018-08-25T11:06:21.441Z,16.48
2018-08-25T11:08:49.746Z,16.54
2018-08-25T11:11:18.013Z,16.56
2018-08-25T11:13:46.433Z,16.61
2018-08-25T11:16:14.819Z,16.84
2018-08-25T11:18:43.252Z,16.94
2018-08-25T11:21:12.674Z,17.11
2018-08-25T11:23:40.983Z,17.20
2018-08-25T11:26:09.353Z,17.39
2018-08-25T11:28:37.612Z,17.51
2018-08-25T11:31:05.914Z,17.74
2018-08-25T11:33:34.210Z,17.57
2018-08-25T11:36:02.533Z,17.75
2018-08-25T11:38:31.069Z,18.38
2018-08-25T11:40:59.367Z,19.13
2018-08-25T11:43:28.810Z,19.78
2018-08-25T11:45:57.144Z,19.91
2018-08-25T11:48:25.415Z,18.94
2018-08-25T11:50:53.718Z,17.81
2018-08-25T11:53:22.031Z,17.86
2018-08-25T11:55:50.314Z,17.47
2018-08-25T11:58:18.697Z,17.02
2018-08-25T12:00:46.994Z,16.55
2018-08-25T12:03:15.306Z,16.45
2018-08-25T12:05:43.605Z,16.19
2018-08-25T12:08:11.925Z,15.77
2018-08-25T12:10:40.181Z,16.10
2018-08-25T12:13:08.465Z,16.23
2018-08-25T12:15:36.933Z,16.26
2018-08-25T12:18:06.281Z,15.86
2018-08-25T12:20:34.553Z,15.83
2018-08-25T12:23:02.845Z,15.37
2018-08-25T12:25:31.164Z,15.42
2018-08-25T12:27:59.408Z,14.77
2018-08-25T12:30:27.678Z,14.29
2018-08-25T12:32:55.952Z,13.96
2018-08-25T12:35:24.233Z,13.89
2018-08-25T12:37:53.681Z,13.95
2018-08-25T12:40:21.938Z,13.83
2018-08-25T12:42:50.218Z,13.68
2018-08-25T12:45:18.493Z,13.75
2018-08-25T12:47:46.758Z,13.94
2018-08-25T12:50:15.317Z,14.06
2018-08-25T12:52:43.741Z,14.25
2018-08-25T12:55:12.057Z,14.20
2018-08-25T12:57:40.305Z,14.25
2018-08-25T13:00:08.610Z,14.35
2018-08-25T13:02:36.885Z,14.56
2018-08-25T13:05:05.435Z,14.98
2018-08-25T13:07:33.785Z,15.30
2018-08-25T13:10:02.490Z,15.20
2018-08-25T13:12:30.737Z,15.53
2018-08-25T13:14:59.051Z,15.19
2018-08-25T13:17:28.329Z,15.10
2018-08-25T13:19:57.665Z,14.96
2018-08-25T13:22:25.943Z,15.29
2018-08-25T13:24:56.346Z,15.10
2018-08-25T13:27:24.629Z,15.20
2018-08-25T13:29:52.944Z,14.57
2018-08-25T13:32:21.226Z,14.70
2018-08-25T13:34:49.530Z,15.02
2018-08-25T13:37:17.808Z,15.69
2018-08-25T13:39:46.127Z,15.25
2018-08-25T13:42:14.385Z,14.77
2018-08-25T13:44:42.658Z,14.86
2018-08-25T13:47:11.011Z,14.61
2018-08-25T13:49:39.320Z,14.56
2018-08-25T13:52:09.461Z,14.26
2018-08-25T13:54:37.726Z,14.08
2018-08-25T13:57:06.035Z,14.37
2018-08-25T13:59:34.299Z,14.48
2018-08-25T14:02:02.581Z,14.08
2018-08-25T14:04:30.849Z,14.03
2018-08-25T14:06:59.235Z,14.18
2018-08-25T14:09:27.493Z,14.40
2018-08-25T14:11:55.778Z,14.62
2018-08-25T14:14:24.069Z,14.35
2018-08-25T14:16:52.394Z,14.48
2018-08-25T14:19:20.641Z,14.43
2018-08-25T14:21:48.966Z,14.39
2018-08-25T14:24:17.240Z,14.49
2018-08-25T14:26:46.548Z,14.59
2018-08-25T14:29:14.792Z,14.82
2018-08-25T14:31:43.099Z,14.57
2018-08-25T14:34:11.393Z,14.47
2018-08-25T14:36:39.702Z,14.33
2018-08-25T14:39:10.353Z,14.18
2018-08-25T14:41:39.688Z,14.24
2018-08-25T14:44:07.929Z,14.53
2018-08-25T14:46:38.313Z,14.27
2018-08-25T14:49:07.018Z,14.75
2018-08-25T14:51:35.305Z,14.95
2018-08-25T14:54:03.608Z,15.24
2018-08-25T14:56:31.906Z,15.11
2018-08-25T14:59:00.253Z,15.52
2018-08-25T15:01:28.548Z,16.12
2018-08-25T15:03:57.280Z,16.25
2018-08-25T15:06:25.736Z,17.28
2018-08-25T15:08:54.083Z,18.69
2018-08-25T15:11:22.386Z,19.38
2018-08-25T15:13:50.741Z,20.42
2018-08-25T15:16:19.047Z,20.89
2018-08-25T15:18:47.422Z,21.09
2018-08-25T15:21:15.749Z,19.01
2018-08-25T15:23:44.125Z,20.33
2018-08-25T15:26:14.494Z,20.74
2018-08-25T15:28:42.829Z,18.65
2018-08-25T15:31:11.181Z,19.74
2018-08-25T15:33:39.454Z,18.54
2018-08-25T15:36:07.980Z,17.76
2018-08-25T15:38:36.240Z,17.60
2018-08-25T15:41:04.719Z,17.48
2018-08-25T15:43:33.065Z,17.59
2018-08-25T15:46:01.324Z,17.28
2018-08-25T15:48:29.573Z,17.50
2018-08-25T15:50:57.854Z,19.62
2018-08-25T15:53:27.142Z,23.52
2018-08-25T15:58:46.422Z,26.43
2018-08-25T16:01:14.689Z,26.30
2018-08-25T16:03:44.021Z,27.20
2018-08-25T16:06:13.607Z,26.41
2018-08-25T16:08:41.873Z,25.50
2018-08-25T16:11:10.149Z,27.08
2018-08-25T16:13:38.465Z,27.92
2018-08-25T16:16:06.789Z,27.30
2018-08-25T16:18:35.452Z,25.53
2018-08-25T16:21:03.985Z,27.89
2018-08-25T16:23:32.542Z,28.08
2018-08-25T16:26:00.874Z,28.50
2018-08-25T16:28:29.246Z,26.15
2018-08-25T16:30:57.567Z,25.37
2018-08-25T16:33:25.952Z,25.09
2018-08-25T16:35:55.286Z,24.93
2018-08-25T16:38:23.654Z,23.39
2018-08-25T16:40:52.940Z,25.60
2018-08-25T16:43:21.275Z,25.11
2018-08-25T16:45:49.633Z,25.62
2018-08-25T16:48:17.932Z,25.77
2018-08-25T16:50:46.233Z,24.88
2018-08-25T16:53:14.532Z,20.78
2018-08-25T16:55:42.822Z,19.16
2018-08-25T16:58:12.157Z,18.21
2018-08-25T17:00:40.442Z,17.80
2018-08-25T17:03:08.971Z,17.37
2018-08-25T17:05:37.289Z,17.15
2018-08-25T17:08:05.572Z,16.74
2018-08-25T17:10:33.865Z,16.64
2018-08-25T17:13:02.153Z,16.41
2018-08-25T17:15:30.439Z,16.38
2018-08-25T17:17:58.747Z,16.20
2018-08-25T17:20:27.345Z,15.94
2018-08-25T17:22:56.721Z,15.94
2018-08-25T17:25:25.030Z,16.27
2018-08-25T17:27:53.317Z,15.98
2018-08-25T17:30:21.638Z,15.92
2018-08-25T17:32:49.981Z,16.15
2018-08-25T17:35:19.109Z,16.14
2018-08-25T17:37:47.687Z,15.57
2018-08-25T17:40:16.054Z,15.81
2018-08-25T17:42:45.412Z,15.74
2018-08-25T17:45:13.790Z,15.64
2018-08-25T17:47:42.018Z,15.33
2018-08-25T17:50:10.353Z,15.38
2018-08-25T17:52:38.619Z,15.08
2018-08-25T17:55:06.960Z,14.89
2018-08-25T17:57:35.427Z,14.80
2018-08-25T18:00:03.646Z,14.79
2018-08-25T18:02:31.926Z,14.88
2018-08-25T18:05:00.230Z,14.90
2018-08-25T18:07:28.480Z,14.81
2018-08-25T18:09:57.125Z,14.73
2018-08-25T18:12:25.390Z,14.74
2018-08-25T18:14:53.654Z,14.72
2018-08-25T18:17:21.993Z,14.57
2018-08-25T18:19:50.197Z,14.60
2018-08-25T18:22:18.505Z,14.57
2018-08-25T18:24:47.198Z,14.37
2018-08-25T18:27:15.501Z,14.36
2018-08-25T18:29:43.829Z,14.24
2018-08-25T18:32:13.714Z,14.19
2018-08-25T18:34:41.997Z,14.24
2018-08-25T18:37:10.282Z,14.19
2018-08-25T18:39:38.801Z,14.14
2018-08-25T18:42:08.212Z,14.28
2018-08-25T18:44:36.478Z,14.10
2018-08-25T18:47:04.985Z,14.18
2018-08-25T18:49:34.470Z,14.17
2018-08-25T18:52:02.805Z,14.04
2018-08-25T18:54:32.173Z,13.99
2018-08-25T18:57:01.439Z,13.95
2018-08-25T18:59:29.985Z,14.03
2018-08-25T19:01:58.394Z,13.92
2018-08-25T19:04:26.535Z,13.89
2018-08-25T19:06:54.870Z,13.97
2018-08-25T19:09:23.214Z,14.01
2018-08-25T19:11:51.705Z,13.98
2018-08-25T19:14:21.097Z,13.75
2018-08-25T19:16:50.291Z,13.83
2018-08-25T19:19:18.609Z,13.70
2018-08-25T19:21:46.877Z,13.59
2018-08-25T19:24:15.235Z,13.56
2018-08-25T19:26:43.454Z,13.59
2018-08-25T19:29:12.146Z,13.45
2018-08-25T19:31:40.433Z,13.58
2018-08-25T19:34:08.761Z,13.45
2018-08-25T19:36:37.033Z,13.45
2018-08-25T19:39:07.778Z,13.45
2018-08-25T19:41:39.689Z,13.43
2018-08-25T19:44:08.026Z,13.31
2018-08-25T19:46:36.608Z,13.23
2018-08-25T19:49:05.079Z,13.37
2018-08-25T19:51:33.349Z,13.31
2018-08-25T19:54:01.982Z,13.28
2018-08-25T19:56:30.239Z,13.13
2018-08-25T19:58:58.590Z,13.18
2018-08-25T20:01:26.868Z,13.11
2018-08-25T20:03:55.205Z,13.16
2018-08-25T20:06:23.481Z,13.02
2018-08-25T20:08:52.028Z,13.09
2018-08-25T20:11:20.374Z,12.94
2018-08-25T20:13:48.700Z,12.83
2018-08-25T20:16:17.793Z,12.97
2018-08-25T20:18:46.121Z,12.91
2018-08-25T20:21:14.600Z,12.82
2018-08-25T20:23:42.921Z,12.82
2018-08-25T20:26:11.429Z,12.76
2018-08-25T20:28:39.729Z,12.73
2018-08-25T20:31:08.061Z,12.69
2018-08-25T20:33:36.357Z,12.74
2018-08-25T20:36:04.816Z,12.68
2018-08-25T20:38:33.151Z,12.51
2018-08-25T20:41:01.554Z,12.63
2018-08-25T20:43:29.901Z,12.63
2018-08-25T20:45:58.366Z,12.50
2018-08-25T20:48:26.597Z,12.42
2018-08-25T20:50:54.949Z,12.47
2018-08-25T20:53:24.288Z,12.59
2018-08-25T20:55:52.553Z,12.58
2018-08-25T20:58:20.857Z,12.49
2018-08-25T21:00:49.300Z,12.46
2018-08-25T21:03:17.538Z,12.45
2018-08-25T21:05:45.821Z,12.47
2018-08-25T21:08:14.121Z,12.53
2018-08-25T21:10:42.422Z,12.53
2018-08-25T21:13:10.730Z,12.52
2018-08-25T21:15:39.133Z,12.46
2018-08-25T21:18:07.542Z,12.51
2018-08-25T21:20:36.965Z,12.51
2018-08-25T21:23:05.411Z,12.67
2018-08-25T21:25:33.689Z,12.59
2018-08-25T21:28:01.962Z,12.59
2018-08-25T21:30:30.276Z,12.54
2018-08-25T21:32:58.610Z,12.48
2018-08-25T21:35:26.888Z,12.52
2018-08-25T21:37:56.232Z,12.40
2018-08-25T21:40:25.593Z,12.36
2018-08-25T21:42:53.921Z,12.43
2018-08-25T21:45:22.183Z,12.39
2018-08-25T21:47:50.536Z,12.32
2018-08-25T21:50:18.811Z,12.35
2018-08-25T21:52:47.134Z,12.26
2018-08-25T21:55:15.392Z,12.37
2018-08-25T21:57:43.665Z,12.27
2018-08-25T22:00:11.998Z,12.27
2018-08-25T22:02:40.258Z,12.26
2018-08-25T22:05:09.601Z,12.23
2018-08-25T22:07:37.925Z,12.18
2018-08-25T22:10:06.230Z,12.26
2018-08-25T22:12:34.481Z,12.25
2018-08-25T22:15:02.823Z,12.18
2018-08-25T22:17:31.101Z,12.25
2018-08-25T22:19:59.409Z,12.10
2018-08-25T22:22:27.723Z,12.22
2018-08-25T22:25:00.729Z,12.28
2018-08-25T22:27:29.012Z,12.23
2018-08-25T22:29:57.326Z,12.22
2018-08-25T22:32:25.633Z,12.24
2018-08-25T22:34:53.977Z,12.25
2018-08-25T22:37:22.341Z,12.25
2018-08-25T22:39:50.673Z,12.19
2018-08-25T22:42:18.985Z,12.19
2018-08-25T22:44:47.283Z,12.08
2018-08-25T22:47:15.582Z,11.90
2018-08-25T22:49:43.894Z,11.96
2018-08-25T22:52:12.181Z,11.95
2018-08-25T22:54:40.537Z,12.03
2018-08-25T22:57:08.865Z,12.15
2018-08-25T22:59:37.143Z,12.17
2018-08-25T23:02:06.545Z,12.00
2018-08-25T23:04:34.817Z,11.97
2018-08-25T23:07:03.121Z,12.08
2018-08-25T23:09:31.406Z,12.15
2018-08-25T23:11:59.699Z,12.15
2018-08-25T23:14:28.071Z,12.04
2018-08-25T23:16:57.512Z,12.04
2018-08-25T23:19:25.794Z,11.92
2018-08-25T23:21:54.105Z,12.00
2018-08-25T23:24:22.365Z,11.89
2018-08-25T23:26:51.244Z,11.75
2018-08-25T23:29:19.565Z,11.74
2018-08-25T23:31:48.932Z,11.83
2018-08-25T23:34:17.208Z,11.65
2018-08-25T23:36:45.520Z,11.67
2018-08-25T23:39:13.811Z,11.59
2018-08-25T23:41:42.165Z,11.61
2018-08-25T23:44:10.662Z,11.61
2018-08-25T23:46:39.024Z,11.62
2018-08-25T23:49:07.342Z,11.67
2018-08-25T23:51:35.838Z,11.47
2018-08-25T23:54:04.213Z,11.56
2018-08-25T23:56:32.699Z,11.44
2018-08-25T23:59:01.047Z,11.42
